createdAt,value
2018-12-08T00:01:01.712Z,10.07
2018-12-08T00:03:30.033Z,7.37
2018-12-08T00:05:58.512Z,9.37
2018-12-08T00:08:27.276Z,9.40
2018-12-08T00:10:55.508Z,5.77
2018-12-08T00:13:23.684Z,6.10
2018-12-08T00:15:51.920Z,6.67
2018-12-08T00:18:20.108Z,9.93
2018-12-08T00:20:48.270Z,6.00
2018-12-08T00:23:16.420Z,7.97
2018-12-08T00:25:44.661Z,7.83
2018-12-08T00:28:12.817Z,10.90
2018-12-08T00:30:52.416Z,12.53
2018-12-08T00:33:20.628Z,7.60
2018-12-08T00:35:48.904Z,8.80
2018-12-08T00:38:17.180Z,6.63
2018-12-08T00:40:45.320Z,8.57
2018-12-08T00:43:13.528Z,13.93
2018-12-08T00:45:41.833Z,10.37
2018-12-08T00:48:09.982Z,10.40
2018-12-08T00:50:38.145Z,12.00
2018-12-08T00:53:06.441Z,8.57
2018-12-08T00:55:34.727Z,9.97
2018-12-08T00:58:02.877Z,8.67
2018-12-08T01:00:31.068Z,7.17
2018-12-08T01:02:59.340Z,5.63
2018-12-08T01:05:27.548Z,5.17
2018-12-08T01:07:55.788Z,6.37
2018-12-08T01:10:23.944Z,7.43
2018-12-08T01:12:52.353Z,10.00
2018-12-08T01:15:20.632Z,10.00
2018-12-08T01:17:48.789Z,9.57
2018-12-08T01:20:17.089Z,8.57
2018-12-08T01:22:45.251Z,5.63
2018-12-08T01:25:13.720Z,10.10
2018-12-08T01:27:42.010Z,9.23
2018-12-08T01:30:10.504Z,12.30
2018-12-08T01:32:38.753Z,8.40
2018-12-08T01:35:07.048Z,8.27
2018-12-08T01:37:35.216Z,6.37
2018-12-08T01:40:03.928Z,4.57
2018-12-08T01:42:32.079Z,5.00
2018-12-08T01:45:00.260Z,5.20
2018-12-08T01:47:28.424Z,8.60
2018-12-08T01:49:56.628Z,9.37
2018-12-08T01:52:24.780Z,11.23
2018-12-08T01:54:53.232Z,15.27
2018-12-08T01:57:21.668Z,8.07
2018-12-08T01:59:50.032Z,8.07
2018-12-08T02:02:18.320Z,9.13
2018-12-08T02:04:46.472Z,10.47
2018-12-08T02:07:14.653Z,13.37
2018-12-08T02:09:42.821Z,11.17
2018-12-08T02:12:11.016Z,11.33
2018-12-08T02:14:39.272Z,7.93
2018-12-08T02:17:07.457Z,15.40
2018-12-08T02:19:35.720Z,11.97
2018-12-08T02:22:04.024Z,6.40
2018-12-08T02:24:32.296Z,12.23
2018-12-08T02:27:00.580Z,9.33
2018-12-08T02:29:28.848Z,12.33
2018-12-08T02:31:57.030Z,14.67
2018-12-08T02:34:25.272Z,12.03
2018-12-08T02:36:53.469Z,10.20
2018-12-08T02:39:21.638Z,12.67
2018-12-08T02:41:50.065Z,11.97
2018-12-08T02:44:18.310Z,8.70
2018-12-08T02:46:46.588Z,13.80
2018-12-08T02:49:14.847Z,10.03
2018-12-08T02:51:43.036Z,12.17
2018-12-08T02:54:11.177Z,12.53
2018-12-08T02:56:39.380Z,13.40
2018-12-08T02:59:07.644Z,16.83
2018-12-08T03:01:35.844Z,8.03
2018-12-08T03:04:04.168Z,9.20
2018-12-08T03:06:32.497Z,11.47
2018-12-08T03:09:00.665Z,12.20
2018-12-08T03:11:29.097Z,10.80
2018-12-08T03:13:57.240Z,11.70
2018-12-08T03:16:25.388Z,11.83
2018-12-08T03:18:53.546Z,7.10
2018-12-08T03:21:21.948Z,9.07
2018-12-08T03:23:50.129Z,8.77
2018-12-08T03:26:18.288Z,8.37
2018-12-08T03:28:46.485Z,12.83
2018-12-08T03:31:14.741Z,9.57
2018-12-08T03:33:42.924Z,11.57
2018-12-08T03:36:11.093Z,9.00
2018-12-08T03:38:39.273Z,6.77
2018-12-08T03:41:07.558Z,8.43
2018-12-08T03:43:35.944Z,9.03
2018-12-08T03:46:04.208Z,8.87
2018-12-08T03:48:32.376Z,7.03
2018-12-08T03:51:00.558Z,9.43
2018-12-08T03:53:28.704Z,8.73
2018-12-08T03:55:57.013Z,10.97
2018-12-08T03:58:25.192Z,5.03
2018-12-08T04:00:53.353Z,9.87
2018-12-08T04:03:21.640Z,5.73
2018-12-08T04:05:49.806Z,8.33
2018-12-08T04:08:17.952Z,7.80
2018-12-08T04:10:46.273Z,9.70
2018-12-08T04:13:14.441Z,11.20
2018-12-08T04:15:42.606Z,6.40
2018-12-08T04:18:10.799Z,7.03
2018-12-08T04:20:38.994Z,10.30
2018-12-08T04:23:07.141Z,7.43
2018-12-08T04:25:35.416Z,6.90
2018-12-08T04:28:03.561Z,8.63
2018-12-08T04:30:31.769Z,6.07
2018-12-08T04:32:59.921Z,7.07
2018-12-08T04:35:28.221Z,10.63
2018-12-08T04:37:56.388Z,9.37
2018-12-08T04:40:24.574Z,4.47
2018-12-08T04:42:52.941Z,3.87
2018-12-08T04:45:21.154Z,4.73
2018-12-08T04:47:49.292Z,4.87
2018-12-08T04:50:17.456Z,7.63
2018-12-08T04:52:45.636Z,8.13
2018-12-08T04:55:13.825Z,8.63
2018-12-08T04:57:42.092Z,9.57
2018-12-08T05:00:10.500Z,7.63
2018-12-08T05:02:38.724Z,9.30
2018-12-08T05:05:07.148Z,6.93
2018-12-08T05:07:35.400Z,7.40
2018-12-08T05:10:03.804Z,9.13
2018-12-08T05:12:31.960Z,9.87
2018-12-08T05:15:00.114Z,3.70
2018-12-08T05:17:28.415Z,6.07
2018-12-08T05:19:56.596Z,8.50
2018-12-08T05:22:24.766Z,8.73
2018-12-08T05:24:52.969Z,8.63
2018-12-08T05:27:21.120Z,10.90
2018-12-08T05:29:49.437Z,7.23
2018-12-08T05:32:17.789Z,5.70
2018-12-08T05:34:45.981Z,6.87
2018-12-08T05:37:14.125Z,7.93
2018-12-08T05:39:42.281Z,5.50
2018-12-08T05:42:10.596Z,7.83
2018-12-08T05:44:38.748Z,5.53
2018-12-08T05:47:06.937Z,11.37
2018-12-08T05:49:35.196Z,7.43
2018-12-08T05:52:03.349Z,9.63
2018-12-08T05:54:31.657Z,7.87
2018-12-08T05:56:59.896Z,9.20
2018-12-08T05:59:28.206Z,9.13
2018-12-08T06:01:56.444Z,8.43
2018-12-08T06:04:24.656Z,9.97
2018-12-08T06:06:52.845Z,10.57
2018-12-08T06:09:21.009Z,5.23
2018-12-08T06:11:49.194Z,9.30
2018-12-08T06:14:17.329Z,9.57
2018-12-08T06:16:45.545Z,9.80
2018-12-08T06:19:13.809Z,9.23
2018-12-08T06:21:41.960Z,4.13
2018-12-08T06:24:10.104Z,10.30
2018-12-08T06:26:47.149Z,9.53
2018-12-08T06:29:16.028Z,8.10
2018-12-08T06:31:44.316Z,9.87
2018-12-08T06:34:12.679Z,7.80
2018-12-08T06:36:40.849Z,4.97
2018-12-08T06:39:09.040Z,8.70
2018-12-08T06:41:37.223Z,9.60
2018-12-08T06:44:05.508Z,10.60
2018-12-08T06:46:33.797Z,8.73
2018-12-08T06:49:01.964Z,6.03
2018-12-08T06:51:30.129Z,11.50
2018-12-08T06:53:58.300Z,8.57
2018-12-08T06:56:26.444Z,8.73
2018-12-08T06:58:54.760Z,10.00
2018-12-08T07:01:22.916Z,11.23
2018-12-08T07:03:51.104Z,6.97
2018-12-08T07:06:19.393Z,11.73
2018-12-08T07:08:47.640Z,7.17
2018-12-08T07:11:15.780Z,7.63
2018-12-08T07:13:43.933Z,6.97
2018-12-08T07:16:12.392Z,10.30
2018-12-08T07:18:40.568Z,6.67
2018-12-08T07:21:08.830Z,6.50
2018-12-08T07:23:37.016Z,7.60
2018-12-08T07:26:05.164Z,8.87
2018-12-08T07:28:33.353Z,5.40
2018-12-08T07:31:01.646Z,6.63
2018-12-08T07:33:29.932Z,7.00
2018-12-08T07:35:58.125Z,8.30
2018-12-08T07:38:26.285Z,11.40
2018-12-08T07:40:54.440Z,9.07
2018-12-08T07:43:22.736Z,9.17
2018-12-08T07:45:50.884Z,6.93
2018-12-08T07:48:19.199Z,22.33
2018-12-08T07:50:47.560Z,9.27
2018-12-08T07:53:15.952Z,12.33
2018-12-08T07:55:44.097Z,12.43
2018-12-08T07:58:12.277Z,13.90
2018-12-08T08:00:40.579Z,10.43
2018-12-08T08:03:08.728Z,12.97
2018-12-08T08:05:36.921Z,5.03
2018-12-08T08:08:05.080Z,8.93
2018-12-08T08:10:33.460Z,9.87
2018-12-08T08:13:01.745Z,9.87
2018-12-08T08:15:29.986Z,10.50
2018-12-08T08:17:58.192Z,9.07
2018-12-08T08:20:26.441Z,11.23
2018-12-08T08:22:54.681Z,13.70
2018-12-08T08:25:22.920Z,8.33
2018-12-08T08:27:51.203Z,12.43
2018-12-08T08:30:19.489Z,10.30
2018-12-08T08:32:47.662Z,12.00
2018-12-08T08:35:15.837Z,8.67
2018-12-08T08:37:43.992Z,10.93
2018-12-08T08:40:12.311Z,12.03
2018-12-08T08:42:40.453Z,11.87
2018-12-08T08:45:09.258Z,7.50
2018-12-08T08:47:38.130Z,9.30
2018-12-08T08:50:09.296Z,7.73
2018-12-08T08:52:37.457Z,7.37
2018-12-08T08:55:06.468Z,10.73
2018-12-08T08:57:34.616Z,8.80
2018-12-08T09:00:03.071Z,11.53
2018-12-08T09:02:31.405Z,10.43
2018-12-08T09:04:59.556Z,10.90
2018-12-08T09:07:27.719Z,8.43
2018-12-08T09:09:55.946Z,10.07
2018-12-08T09:12:24.101Z,8.90
2018-12-08T09:14:52.248Z,6.37
2018-12-08T09:17:20.440Z,5.67
2018-12-08T09:19:48.604Z,6.70
2018-12-08T09:22:16.844Z,13.23
2018-12-08T09:24:45.325Z,8.97
2018-12-08T09:27:13.550Z,5.17
2018-12-08T09:29:41.846Z,6.50
2018-12-08T09:32:10.109Z,10.40
2018-12-08T09:34:38.269Z,8.60
2018-12-08T09:37:06.677Z,9.83
2018-12-08T09:39:34.820Z,7.83
2018-12-08T09:42:03.234Z,6.73
2018-12-08T09:44:31.439Z,11.50
2018-12-08T09:46:59.591Z,7.23
2018-12-08T09:49:27.740Z,4.50
2018-12-08T09:51:56.021Z,9.73
2018-12-08T09:54:24.324Z,13.53
2018-12-08T09:56:52.597Z,5.70
2018-12-08T09:59:20.838Z,8.00
2018-12-08T10:01:49.184Z,9.73
2018-12-08T10:04:17.420Z,11.00
2018-12-08T10:06:45.740Z,8.03
2018-12-08T10:09:14.409Z,8.97
2018-12-08T10:11:43.393Z,13.37
2018-12-08T10:14:11.604Z,15.80
2018-12-08T10:16:39.821Z,11.80
2018-12-08T10:19:08.043Z,19.57
2018-12-08T10:21:36.501Z,11.77
2018-12-08T10:24:04.752Z,8.37
2018-12-08T10:26:33.007Z,13.77
2018-12-08T10:29:01.189Z,40.77
2018-12-08T10:31:29.363Z,11.37
2018-12-08T10:33:57.681Z,36.17
2018-12-08T10:36:25.859Z,12.10
2018-12-08T10:38:54.153Z,6.37
2018-12-08T10:41:22.334Z,7.40
2018-12-08T10:43:50.520Z,6.67
2018-12-08T10:46:18.789Z,7.77
2018-12-08T10:48:47.161Z,7.57
2018-12-08T10:51:15.763Z,4.57
2018-12-08T10:53:43.990Z,5.90
2018-12-08T10:56:12.220Z,4.87
2018-12-08T10:58:40.435Z,23.27
2018-12-08T11:01:14.140Z,4.87
2018-12-08T11:03:49.021Z,4.73
2018-12-08T11:06:17.348Z,3.53
2018-12-08T11:08:45.737Z,5.57
2018-12-08T11:11:13.900Z,5.70
2018-12-08T11:13:42.188Z,5.73
2018-12-08T11:16:10.486Z,5.90
2018-12-08T11:18:38.744Z,4.93
2018-12-08T11:21:06.917Z,6.70
2018-12-08T11:23:35.096Z,5.87
2018-12-08T11:26:03.398Z,4.83
2018-12-08T11:28:31.629Z,6.67
2018-12-08T11:30:59.900Z,6.33
2018-12-08T11:33:28.136Z,5.37
2018-12-08T11:35:56.393Z,6.53
2018-12-08T11:38:24.692Z,6.47
2018-12-08T11:40:52.924Z,8.70
2018-12-08T11:43:21.353Z,5.90
2018-12-08T11:45:49.692Z,7.07
2018-12-08T11:48:17.848Z,5.17
2018-12-08T11:50:46.136Z,4.60
2018-12-08T11:53:14.297Z,4.93
2018-12-08T11:55:42.493Z,3.03
2018-12-08T11:58:10.790Z,3.03
2018-12-08T12:00:39.080Z,4.33
2018-12-08T12:03:07.317Z,3.47
2018-12-08T12:05:35.473Z,3.53
2018-12-08T12:08:03.877Z,2.43
2018-12-08T12:10:32.038Z,3.67
2018-12-08T12:13:00.185Z,3.80
2018-12-08T12:15:28.358Z,2.87
2018-12-08T12:17:56.564Z,4.27
2018-12-08T12:20:24.734Z,6.63
2018-12-08T12:22:52.891Z,3.87
2018-12-08T12:25:22.099Z,2.17
2018-12-08T12:27:50.541Z,2.00
2018-12-08T12:30:19.096Z,1.73
2018-12-08T12:32:47.245Z,2.77
2018-12-08T12:35:15.413Z,1.87
2018-12-08T12:37:43.572Z,3.10
2018-12-08T12:40:11.888Z,2.77
2018-12-08T12:42:40.056Z,3.90
2018-12-08T12:45:08.389Z,3.07
2018-12-08T12:47:36.637Z,2.33
2018-12-08T12:50:05.489Z,4.17
2018-12-08T12:52:33.776Z,4.17
2018-12-08T12:55:02.056Z,5.67
2018-12-08T12:57:30.336Z,3.23
2018-12-08T12:59:58.761Z,3.73
2018-12-08T13:02:26.900Z,4.57
2018-12-08T13:04:55.082Z,6.13
2018-12-08T13:07:23.263Z,3.97
2018-12-08T13:09:51.553Z,2.27
2018-12-08T13:12:20.419Z,3.87
2018-12-08T13:14:48.568Z,3.30
2018-12-08T13:17:16.766Z,2.37
2018-12-08T13:19:45.024Z,2.57
2018-12-08T13:22:13.215Z,4.27
2018-12-08T13:24:41.490Z,2.77
2018-12-08T13:27:09.779Z,2.53
2018-12-08T13:29:38.038Z,3.00
2018-12-08T13:32:06.532Z,1.40
2018-12-08T13:34:34.806Z,2.60
2018-12-08T13:37:02.988Z,2.37
2018-12-08T13:39:31.241Z,2.97
2018-12-08T13:41:59.433Z,1.77
2018-12-08T13:44:36.115Z,3.43
2018-12-08T13:47:04.705Z,2.70
2018-12-08T13:49:33.477Z,2.73
2018-12-08T13:52:01.766Z,3.37
2018-12-08T13:54:46.227Z,3.03
2018-12-08T13:57:14.497Z,4.77
2018-12-08T13:59:50.280Z,3.67
2018-12-08T14:02:18.428Z,2.77
2018-12-08T14:04:46.572Z,2.90
2018-12-08T14:07:14.728Z,2.70
2018-12-08T14:09:42.941Z,2.80
2018-12-08T14:12:11.182Z,4.03
2018-12-08T14:14:39.588Z,3.67
2018-12-08T14:17:08.415Z,2.47
2018-12-08T14:19:36.557Z,1.63
2018-12-08T14:22:05.059Z,3.13
2018-12-08T14:24:33.204Z,1.67
2018-12-08T14:27:01.355Z,3.20
2018-12-08T14:29:29.560Z,3.20
2018-12-08T14:31:58.028Z,4.60
2018-12-08T14:34:26.324Z,2.07
2018-12-08T14:36:54.568Z,1.87
2018-12-08T14:39:22.764Z,1.83
2018-12-08T14:41:50.968Z,1.53
2018-12-08T14:44:19.336Z,2.03
2018-12-08T14:46:47.713Z,1.43
2018-12-08T14:49:15.964Z,2.20
2018-12-08T14:51:44.161Z,6.93
2018-12-08T14:54:12.460Z,1.97
2018-12-08T14:56:40.712Z,3.93
2018-12-08T14:59:09.112Z,2.27
2018-12-08T15:01:37.272Z,2.90
2018-12-08T15:04:05.560Z,3.10
2018-12-08T15:06:33.793Z,2.97
2018-12-08T15:09:02.121Z,4.83
2018-12-08T15:11:30.369Z,4.30
2018-12-08T15:13:58.563Z,2.97
2018-12-08T15:16:26.820Z,2.60
2018-12-08T15:18:55.012Z,3.23
2018-12-08T15:21:23.177Z,2.83
2018-12-08T15:23:51.368Z,4.90
2018-12-08T15:26:19.568Z,3.23
2018-12-08T15:28:47.920Z,3.67
2018-12-08T15:31:16.201Z,3.10
2018-12-08T15:33:44.444Z,3.10
2018-12-08T15:36:12.765Z,6.90
2018-12-08T15:38:40.928Z,6.03
2018-12-08T15:41:09.188Z,5.77
2018-12-08T15:43:37.380Z,8.63
2018-12-08T15:46:05.847Z,7.40
2018-12-08T15:48:34.492Z,11.30
2018-12-08T15:51:02.925Z,8.47
2018-12-08T15:53:31.124Z,9.03
2018-12-08T15:55:59.302Z,12.23
2018-12-08T15:58:27.772Z,9.33
2018-12-08T16:00:56.161Z,10.33
2018-12-08T16:03:24.428Z,8.50
2018-12-08T16:05:52.592Z,6.57
2018-12-08T16:08:20.766Z,10.17
2018-12-08T16:10:49.153Z,8.37
2018-12-08T16:13:17.412Z,6.80
2018-12-08T16:15:45.812Z,8.90
2018-12-08T16:18:14.065Z,9.87
2018-12-08T16:20:42.385Z,8.17
2018-12-08T16:23:10.624Z,7.73
2018-12-08T16:25:39.026Z,10.40
2018-12-08T16:28:07.297Z,8.13
2018-12-08T16:30:35.580Z,13.00
2018-12-08T16:33:03.934Z,5.90
2018-12-08T16:35:32.236Z,8.07
2018-12-08T16:38:00.389Z,7.80
2018-12-08T16:40:28.794Z,9.37
2018-12-08T16:42:56.968Z,8.60
2018-12-08T16:45:25.344Z,7.90
2018-12-08T16:47:53.877Z,13.10
2018-12-08T16:50:22.058Z,10.50
2018-12-08T16:52:50.255Z,12.80
2018-12-08T16:55:18.454Z,12.03
2018-12-08T16:57:46.717Z,12.47
2018-12-08T17:00:15.320Z,7.93
2018-12-08T17:02:43.479Z,11.50
2018-12-08T17:05:11.866Z,10.53
2018-12-08T17:07:40.037Z,9.87
2018-12-08T17:10:08.736Z,9.17
2018-12-08T17:12:37.011Z,10.73
2018-12-08T17:15:05.997Z,12.03
2018-12-08T17:17:34.284Z,12.00
2018-12-08T17:20:02.648Z,8.17
2018-12-08T17:22:30.965Z,12.13
2018-12-08T17:24:59.331Z,13.53
2018-12-08T17:27:27.484Z,9.07
2018-12-08T17:29:55.641Z,10.00
2018-12-08T17:32:23.803Z,9.80
2018-12-08T17:34:52.095Z,7.87
2018-12-08T17:37:20.400Z,7.00
2018-12-08T17:39:48.656Z,10.80
2018-12-08T17:42:16.944Z,6.43
2018-12-08T17:44:45.088Z,9.43
2018-12-08T17:47:13.609Z,7.93
2018-12-08T17:49:41.764Z,8.13
2018-12-08T17:52:10.160Z,7.90
2018-12-08T17:54:38.424Z,8.53
2018-12-08T17:57:06.668Z,9.00
2018-12-08T17:59:34.886Z,11.00
2018-12-08T18:02:03.260Z,10.17
2018-12-08T18:04:31.540Z,14.63
2018-12-08T18:06:59.688Z,7.73
2018-12-08T18:09:27.928Z,15.03
2018-12-08T18:11:56.089Z,15.23
2018-12-08T18:14:24.241Z,11.67
2018-12-08T18:16:52.446Z,13.63
2018-12-08T18:19:20.607Z,15.30
2018-12-08T18:21:48.920Z,16.47
2018-12-08T18:24:17.239Z,16.43
2018-12-08T18:26:45.629Z,15.07
2018-12-08T18:29:13.796Z,12.33
2018-12-08T18:31:42.116Z,12.57
2018-12-08T18:34:10.473Z,14.37
2018-12-08T18:36:38.727Z,11.07
2018-12-08T18:39:07.456Z,13.73
2018-12-08T18:41:35.701Z,16.47
2018-12-08T18:44:03.957Z,17.27
2018-12-08T18:46:32.154Z,17.97
2018-12-08T18:49:00.328Z,12.10
2018-12-08T18:51:28.596Z,11.50
2018-12-08T18:53:56.752Z,8.90
2018-12-08T18:56:24.897Z,8.83
2018-12-08T18:58:53.122Z,6.30
2018-12-08T19:01:21.542Z,7.43
2018-12-08T19:03:49.785Z,11.17
2018-12-08T19:06:17.944Z,8.57
2018-12-08T19:08:46.178Z,12.60
2018-12-08T19:11:14.423Z,13.87
2018-12-08T19:13:42.580Z,4.43
2018-12-08T19:16:10.794Z,3.07
2018-12-08T19:18:38.963Z,4.13
2018-12-08T19:21:07.219Z,5.30
2018-12-08T19:23:43.389Z,3.87
2018-12-08T19:26:05.815Z,5.63
2018-12-08T19:28:34.080Z,2.50
2018-12-08T19:31:02.263Z,5.17
2018-12-08T19:33:30.546Z,7.93
2018-12-08T19:35:59.636Z,4.77
2018-12-08T19:38:28.046Z,4.17
2018-12-08T19:40:56.199Z,4.83
2018-12-08T19:43:27.496Z,2.63
2018-12-08T19:45:55.833Z,5.13
2018-12-08T19:48:23.979Z,4.03
2018-12-08T19:50:52.208Z,2.80
2018-12-08T19:53:20.437Z,2.93
2018-12-08T19:55:48.636Z,3.33
2018-12-08T19:58:16.804Z,2.73
2018-12-08T20:00:44.968Z,1.97
2018-12-08T20:03:13.257Z,6.53
2018-12-08T20:05:41.532Z,1.53
2018-12-08T20:08:09.760Z,4.07
2018-12-08T20:10:37.976Z,1.10
2018-12-08T20:13:06.364Z,2.17
2018-12-08T20:15:34.756Z,5.33
2018-12-08T20:18:02.897Z,3.00
2018-12-08T20:20:31.201Z,4.40
2018-12-08T20:22:59.560Z,3.30
2018-12-08T20:25:27.776Z,2.37
2018-12-08T20:27:56.017Z,1.83
2018-12-08T20:30:24.184Z,1.60
2018-12-08T20:32:52.377Z,3.30
2018-12-08T20:35:20.600Z,1.93
2018-12-08T20:37:48.749Z,3.43
2018-12-08T20:40:16.989Z,2.50
2018-12-08T20:42:45.173Z,2.67
2018-12-08T20:45:13.456Z,1.53
2018-12-08T20:47:41.628Z,2.10
2018-12-08T20:50:09.800Z,2.13
2018-12-08T20:52:38.095Z,4.47
2018-12-08T20:55:06.464Z,1.63
2018-12-08T20:57:34.638Z,3.53
2018-12-08T21:00:03.015Z,2.80
2018-12-08T21:02:31.193Z,1.23
2018-12-08T21:04:59.569Z,0.87
2018-12-08T21:07:27.720Z,1.03
2018-12-08T21:09:56.008Z,2.40
2018-12-08T21:12:24.197Z,1.90
2018-12-08T21:14:52.465Z,2.07
2018-12-08T21:17:20.627Z,2.33
2018-12-08T21:19:48.807Z,3.33
2018-12-08T21:22:17.001Z,1.63
2018-12-08T21:24:45.208Z,1.70
2018-12-08T21:27:13.353Z,2.53
2018-12-08T21:29:41.655Z,0.43
2018-12-08T21:32:10.970Z,0.97
2018-12-08T21:34:39.405Z,1.07
2018-12-08T21:37:07.553Z,3.57
2018-12-08T21:39:35.797Z,1.57
2018-12-08T21:42:04.126Z,1.47
2018-12-08T21:44:32.428Z,2.93
2018-12-08T21:47:00.823Z,0.60
2018-12-08T21:49:28.998Z,0.20
2018-12-08T21:51:57.232Z,1.80
2018-12-08T21:54:25.433Z,1.07
2018-12-08T21:56:53.633Z,2.20
2018-12-08T21:59:21.903Z,0.40
2018-12-08T22:01:50.156Z,2.07
2018-12-08T22:04:18.387Z,2.07
2018-12-08T22:06:46.697Z,0.20
2018-12-08T22:09:15.001Z,0.30
2018-12-08T22:11:43.276Z,0.20
2018-12-08T22:14:11.557Z,0.20
2018-12-08T22:16:39.836Z,1.20
2018-12-08T22:19:08.217Z,0.40
2018-12-08T22:21:36.615Z,0.20
2018-12-08T22:24:05.053Z,0.90
2018-12-08T22:26:33.328Z,1.40
2018-12-08T22:29:01.632Z,1.67
2018-12-08T22:31:29.936Z,0.63
2018-12-08T22:33:58.152Z,1.40
2018-12-08T22:36:26.358Z,0.33
2018-12-08T22:38:54.500Z,1.70
2018-12-08T22:41:22.796Z,0.40
2018-12-08T22:43:50.952Z,0.40
2018-12-08T22:46:19.360Z,1.80
2018-12-08T22:48:47.517Z,0.67
2018-12-08T22:51:15.791Z,0.63
2018-12-08T22:53:43.962Z,0.90
2018-12-08T22:56:12.148Z,1.77
2018-12-08T22:58:40.525Z,0.40
2018-12-08T23:01:08.860Z,0.73
2018-12-08T23:03:37.078Z,0.53
2018-12-08T23:06:05.372Z,0.77
2018-12-08T23:08:33.568Z,0.80
2018-12-08T23:11:01.721Z,1.17
2018-12-08T23:13:29.859Z,1.10
2018-12-08T23:15:58.185Z,0.43
2018-12-08T23:18:26.449Z,0.43
2018-12-08T23:20:54.623Z,0.10
2018-12-08T23:23:22.788Z,0.87
2018-12-08T23:25:51.085Z,0.57
2018-12-08T23:28:19.250Z,1.13
2018-12-08T23:30:47.616Z,0.30
2018-12-08T23:33:15.961Z,0.40
2018-12-08T23:35:44.272Z,1.47
2018-12-08T23:38:12.576Z,0.17
2018-12-08T23:40:40.752Z,1.17
2018-12-08T23:43:08.912Z,0.97
2018-12-08T23:45:37.068Z,0.23
2018-12-08T23:48:05.377Z,0.77
2018-12-08T23:50:33.676Z,2.47
2018-12-08T23:53:01.816Z,0.97
2018-12-08T23:55:29.964Z,2.90
2018-12-08T23:57:58.112Z,1.40
